Time;durP1;ratioP1;P1;durP2;ratioP2;P2;SDS_P1;SDS_P2;PMS_P1;PMS_P2;Temp;Humidity;BMP_temperature;BMP_pressure;BME280_temperature;BME280_humidity;BME280_pressure;Samples;Min_cycle;Max_cycle;Signal;HPM_P1;HPM_P2
2023/10/30 00:02:15;;;;;;;;;7.40;7.00;;;;;14.88;100.00;97874.44;6233335;28;96322;-64
2023/10/30 00:05:18;;;;;;;;;6.00;6.00;;;;;14.81;100.00;97873.13;6251716;28;96937;-65
2023/10/30 00:08:24;;;;;;;;;9.00;9.00;;;;;14.79;100.00;97883.41;6219844;28;98506;-65
2023/10/30 00:11:28;;;;;;;;;7.40;7.00;;;;;14.79;100.00;97881.53;6232042;28;96813;-65
2023/10/30 00:14:31;;;;;;;;;9.00;9.00;;;;;14.79;100.00;97880.69;6252567;28;99485;-64
2023/10/30 00:17:34;;;;;;;;;10.00;9.25;;;;;14.74;100.00;97876.91;6240794;28;96732;-65
2023/10/30 00:20:38;;;;;;;;;7.20;6.80;;;;;14.78;100.00;97868.22;6214693;28;96839;-64
2023/10/30 00:23:42;;;;;;;;;5.40;4.80;;;;;14.79;100.00;97861.72;6247255;28;96553;-64
2023/10/30 00:26:45;;;;;;;;;9.00;9.00;;;;;14.78;100.00;97860.91;6236622;28;96340;-64
2023/10/30 00:29:49;;;;;;;;;8.00;8.00;;;;;14.80;100.00;97874.19;6244883;28;96953;-64
2023/10/30 00:32:52;;;;;;;;;9.00;8.00;;;;;14.84;100.00;97877.97;6264119;27;96274;-65
2023/10/30 00:35:55;;;;;;;;;10.00;10.00;;;;;14.82;100.00;97872.81;6247009;27;96605;-65
2023/10/30 00:39:00;;;;;;;;;8.50;8.50;;;;;14.90;100.00;97866.84;6236141;28;96213;-64
2023/10/30 00:42:03;;;;;;;;;9.00;9.00;;;;;14.94;100.00;97869.81;6241978;27;96876;-64
2023/10/30 00:45:08;;;;;;;;;8.00;7.25;;;;;14.99;100.00;97865.22;6253846;28;96609;-65
2023/10/30 00:48:11;;;;;;;;;9.40;9.00;;;;;14.98;100.00;97862.75;6232627;28;96320;-65
2023/10/30 00:51:14;;;;;;;;;10.00;8.20;;;;;14.97;100.00;97864.66;6238203;28;97227;-65
2023/10/30 00:54:19;;;;;;;;;8.00;7.25;;;;;14.94;100.00;97856.25;6236407;28;96715;-64
2023/10/30 00:57:22;;;;;;;;;8.00;8.00;;;;;14.90;100.00;97847.88;6228544;28;96854;-65
2023/10/30 01:00:25;;;;;;;;;8.50;8.50;;;;;14.89;100.00;97846.22;6232361;28;96716;-65
2023/10/30 01:03:28;;;;;;;;;8.40;8.00;;;;;14.91;100.00;97845.94;6233278;28;97461;-64
2023/10/30 01:06:33;;;;;;;;;7.20;7.20;;;;;14.93;100.00;97846.50;6234271;28;96657;-65
2023/10/30 01:09:37;;;;;;;;;7.50;7.00;;;;;14.90;100.00;97826.16;6245227;28;96590;-64
2023/10/30 01:12:40;;;;;;;;;8.00;8.00;;;;;15.03;100.00;97854.59;6236197;28;96403;-64
2023/10/30 01:15:43;;;;;;;;;10.80;10.20;;;;;15.07;100.00;97851.06;6232772;28;96608;-65
2023/10/30 01:18:47;;;;;;;;;7.80;7.00;;;;;14.98;100.00;97833.72;6237332;28;96793;-65
2023/10/30 01:21:51;;;;;;;;;8.60;7.60;;;;;15.07;100.00;97847.53;6233211;28;96267;-64
2023/10/30 01:24:55;;;;;;;;;9.60;9.00;;;;;15.01;100.00;97830.44;6233162;28;96434;-64
2023/10/30 01:27:58;;;;;;;;;7.20;7.00;;;;;15.16;100.00;97846.69;6253188;28;96832;-64
2023/10/30 01:31:01;;;;;;;;;8.75;8.00;;;;;15.22;100.00;97847.50;6233301;28;97825;-65
2023/10/30 01:34:05;;;;;;;;;10.00;9.00;;;;;15.31;100.00;97848.53;6234007;28;98918;-64
2023/10/30 01:37:08;;;;;;;;;9.60;8.60;;;;;15.27;100.00;97855.63;6231912;28;96272;-65
2023/10/30 01:40:13;;;;;;;;;10.00;9.00;;;;;15.26;100.00;97854.00;6232619;28;97162;-64
2023/10/30 01:43:16;;;;;;;;;6.80;6.00;;;;;15.28;100.00;97856.44;6234149;28;96754;-65
2023/10/30 01:46:19;;;;;;;;;11.75;10.00;;;;;15.28;100.00;97859.16;6231115;28;96317;-64
2023/10/30 01:49:22;;;;;;;;;7.60;7.60;;;;;15.26;100.00;97856.69;6233505;28;96501;-65
2023/10/30 01:52:28;;;;;;;;;8.50;8.25;;;;;15.19;100.00;97850.78;6214041;28;96837;-64
2023/10/30 01:55:32;;;;;;;;;7.80;6.80;;;;;15.18;100.00;97846.41;6237924;28;96584;-65
2023/10/30 01:58:35;;;;;;;;;9.40;8.00;;;;;15.13;100.00;97857.28;6232056;28;97113;-65
2023/10/30 02:01:39;;;;;;;;;7.80;7.20;;;;;14.93;100.00;97832.91;6239013;28;96626;-67
2023/10/30 02:04:42;;;;;;;;;9.80;9.80;;;;;15.03;100.00;97862.75;6229385;22;97530;-66
2023/10/30 02:07:45;;;;;;;;;9.00;8.25;;;;;15.02;100.00;97858.41;6158921;28;96725;-66
2023/10/30 02:10:50;;;;;;;;;7.60;7.00;;;;;14.99;100.00;97861.69;6179299;28;96560;-66
2023/10/30 02:14:00;;;;;;;;;7.00;6.00;;;;;15.01;100.00;97867.63;6182369;28;96870;-66
2023/10/30 02:17:03;;;;;;;;;7.00;7.00;;;;;14.90;100.00;97863.34;6185354;28;96513;-66
2023/10/30 02:20:07;;;;;;;;;12.00;10.00;;;;;14.80;100.00;97866.88;6171295;28;97066;-66
2023/10/30 02:23:10;;;;;;;;;9.25;8.25;;;;;14.79;100.00;97867.13;6178789;28;97971;-66
2023/10/30 02:26:15;;;;;;;;;9.50;8.00;;;;;14.78;100.00;97866.31;6171030;28;96553;-66
2023/10/30 02:29:19;;;;;;;;;9.40;8.40;;;;;14.74;100.00;97870.66;6169500;28;96663;-66
2023/10/30 02:32:22;;;;;;;;;13.60;10.60;;;;;14.71;100.00;97874.72;6170832;28;97726;-66
2023/10/30 02:35:25;;;;;;;;;10.20;10.20;;;;;14.69;100.00;97868.78;6191891;28;96553;-66
2023/10/30 02:38:28;;;;;;;;;10.00;9.20;;;;;14.64;100.00;97862.53;6185878;28;96882;-66
2023/10/30 02:41:32;;;;;;;;;12.00;11.00;;;;;14.59;100.00;97849.78;6190474;28;98640;-66
2023/10/30 02:44:36;;;;;;;;;13.60;12.40;;;;;14.54;100.00;97857.13;6205306;28;97105;-66
2023/10/30 02:47:40;;;;;;;;;15.20;13.20;;;;;14.45;100.00;97859.56;6168861;28;96831;-66
2023/10/30 02:50:43;;;;;;;;;13.60;12.60;;;;;14.46;100.00;97863.09;6170255;28;96375;-66
2023/10/30 02:53:47;;;;;;;;;13.00;11.60;;;;;14.48;100.00;97863.63;6193736;28;97974;-66
2023/10/30 02:56:51;;;;;;;;;9.50;9.00;;;;;14.46;100.00;97863.91;6165817;28;97161;-66
2023/10/30 02:59:54;;;;;;;;;14.00;12.00;;;;;14.45;100.00;97856.84;6177368;28;96434;-66
2023/10/30 03:02:57;;;;;;;;;12.75;12.00;;;;;14.43;100.00;97850.88;6181165;28;96691;-66
2023/10/30 03:06:00;;;;;;;;;11.75;11.75;;;;;14.43;100.00;97850.88;6197769;28;96364;-66
2023/10/30 03:09:04;;;;;;;;;12.00;11.00;;;;;14.38;100.00;97847.34;6204090;28;96835;-66
2023/10/30 03:12:11;;;;;;;;;11.00;10.00;;;;;14.32;100.00;97852.75;6171527;28;96638;-66
2023/10/30 03:15:14;;;;;;;;;9.00;9.00;;;;;14.33;100.00;97856.28;6186649;28;96474;-66
2023/10/30 03:18:18;;;;;;;;;11.00;11.00;;;;;14.33;100.00;97858.97;6184930;28;96641;-66
2023/10/30 03:21:21;;;;;;;;;13.40;12.60;;;;;14.34;100.00;97860.63;6202614;28;96361;-65
2023/10/30 03:24:24;;;;;;;;;10.50;10.50;;;;;14.37;100.00;97872.88;6188654;28;96877;-66
2023/10/30 03:27:29;;;;;;;;;12.00;9.00;;;;;14.40;100.00;97886.69;6172116;28;96850;-66
2023/10/30 03:30:35;;;;;;;;;12.00;11.33;;;;;14.42;100.00;97900.78;6170849;28;96701;-66
2023/10/30 03:33:38;;;;;;;;;12.00;10.50;;;;;14.52;100.00;97898.06;6183871;28;96614;-66
2023/10/30 03:36:41;;;;;;;;;12.50;12.50;;;;;14.58;100.00;97905.13;6187785;28;96336;-66
2023/10/30 03:39:44;;;;;;;;;11.60;10.60;;;;;14.49;100.00;97901.31;6203710;28;96588;-66
2023/10/30 03:42:49;;;;;;;;;10.00;9.00;;;;;14.29;100.00;97907.50;6187130;28;98002;-66
2023/10/30 03:45:53;;;;;;;;;6.00;6.00;;;;;13.94;100.00;97893.06;6187183;28;98379;-66
2023/10/30 03:48:56;;;;;;;;;10.00;9.00;;;;;14.02;100.00;97906.13;6172192;28;96670;-66
2023/10/30 03:52:01;;;;;;;;;10.60;10.20;;;;;14.00;100.00;97903.66;6163965;28;96912;-66
2023/10/30 03:55:05;;;;;;;;;10.00;10.00;;;;;13.99;100.00;97906.63;6164000;28;96622;-66
2023/10/30 03:58:09;;;;;;;;;12.00;9.00;;;;;14.03;100.00;97902.31;6186546;28;99073;-66
2023/10/30 04:01:12;;;;;;;;;8.00;8.00;;;;;14.01;100.00;97899.88;6195836;28;97459;-66
2023/10/30 04:04:16;;;;;;;;;10.00;8.00;;;;;14.07;100.00;97895.28;6159074;28;96734;-66
2023/10/30 04:07:19;;;;;;;;;12.00;11.00;;;;;14.05;100.00;97887.41;6163233;28;96284;-66
2023/10/30 04:10:22;;;;;;;;;11.00;11.00;;;;;14.07;100.00;97887.97;6202141;28;96666;-66
2023/10/30 04:13:27;;;;;;;;;12.00;11.25;;;;;14.00;100.00;97859.50;6167976;28;97017;-65
2023/10/30 04:16:30;;;;;;;;;10.00;10.00;;;;;14.15;100.00;97890.16;6186263;28;96673;-66
2023/10/30 04:19:33;;;;;;;;;12.60;11.60;;;;;14.23;100.00;97883.38;6187522;28;96961;-66
2023/10/30 04:22:36;;;;;;;;;13.00;12.00;;;;;14.31;100.00;97869.28;6199946;28;98791;-66
2023/10/30 04:25:39;;;;;;;;;10.40;10.00;;;;;14.40;100.00;97877.72;6173641;28;96460;-66
2023/10/30 04:28:44;;;;;;;;;10.40;10.00;;;;;14.43;100.00;97879.91;6187184;28;98574;-66
2023/10/30 04:31:47;;;;;;;;;11.40;10.00;;;;;14.47;100.00;97881.78;6176886;28;97908;-66
2023/10/30 04:34:50;;;;;;;;;11.00;10.00;;;;;14.45;100.00;97878.56;6178382;28;96607;-66
2023/10/30 04:37:54;;;;;;;;;11.40;10.40;;;;;14.35;100.00;97867.66;6171782;28;97681;-67
2023/10/30 04:40:57;;;;;;;;;10.20;9.20;;;;;14.33;100.00;97875.25;6184274;28;98583;-66
2023/10/30 04:44:02;;;;;;;;;10.20;9.60;;;;;14.29;100.00;97871.44;6190234;28;97067;-65
2023/10/30 04:47:07;;;;;;;;;11.00;10.00;;;;;14.26;100.00;97875.53;6173962;28;98610;-64
2023/10/30 04:50:10;;;;;;;;;9.40;9.00;;;;;14.24;100.00;97871.44;6178411;28;96776;-66
2023/10/30 04:53:14;;;;;;;;;9.00;9.00;;;;;14.20;100.00;97873.06;6182744;28;96482;-66
2023/10/30 04:56:17;;;;;;;;;9.00;8.33;;;;;14.13;100.00;97861.66;6182679;28;96698;-66
2023/10/30 04:59:21;;;;;;;;;11.20;11.00;;;;;14.11;100.00;97874.69;6191561;28;96651;-67
2023/10/30 05:02:24;;;;;;;;;10.00;9.00;;;;;14.07;100.00;97874.44;6185831;28;97186;-65
2023/10/30 05:05:27;;;;;;;;;10.00;10.00;;;;;13.85;100.00;97852.97;6187589;28;96564;-66
2023/10/30 05:08:30;;;;;;;;;12.60;12.00;;;;;14.06;100.00;97882.81;6185509;28;98850;-65
2023/10/30 05:11:38;;;;;;;;;10.40;10.40;;;;;14.10;100.00;97887.44;6185223;28;98084;-66
2023/10/30 05:14:43;;;;;;;;;10.00;10.00;;;;;14.14;100.00;97893.94;6183550;28;97663;-65
2023/10/30 05:17:46;;;;;;;;;13.40;12.60;;;;;14.25;100.00;97894.78;6172276;28;96468;-64
2023/10/30 05:20:49;;;;;;;;;12.00;11.00;;;;;14.28;100.00;97905.06;6181993;28;96649;-66
2023/10/30 05:23:52;;;;;;;;;8.60;8.00;;;;;14.33;100.00;97905.88;6186469;28;96502;-66
2023/10/30 05:26:55;;;;;;;;;10.00;9.00;;;;;14.33;100.00;97907.78;6181340;28;96838;-66
2023/10/30 05:30:00;;;;;;;;;10.00;10.00;;;;;14.31;100.00;97915.38;6166907;28;99635;-66
2023/10/30 05:33:04;;;;;;;;;10.00;9.00;;;;;14.27;100.00;97916.97;6167647;28;97259;-65
2023/10/30 05:36:07;;;;;;;;;9.00;9.00;;;;;14.32;100.00;97933.25;6186574;28;96403;-65
2023/10/30 05:39:10;;;;;;;;;9.80;9.40;;;;;14.35;100.00;97932.75;6172180;28;96524;-66
2023/10/30 05:42:14;;;;;;;;;9.00;7.00;;;;;14.40;100.00;97940.91;6184511;28;96458;-66
2023/10/30 05:45:18;;;;;;;;;10.00;9.20;;;;;14.43;100.00;97953.09;6186263;28;96371;-65
2023/10/30 05:48:21;;;;;;;;;10.40;10.40;;;;;14.48;100.00;97958.53;6175222;28;96776;-66
2023/10/30 05:51:24;;;;;;;;;10.80;10.00;;;;;14.65;100.00;97961.81;6185639;28;97504;-66
2023/10/30 05:54:27;;;;;;;;;11.00;10.00;;;;;14.92;100.00;97965.06;6183887;28;98461;-66
2023/10/30 05:57:31;;;;;;;;;11.00;11.00;;;;;15.13;100.00;97966.69;6183251;28;96652;-66
2023/10/30 06:00:35;;;;;;;;;12.00;11.00;;;;;15.05;100.00;97961.81;6184453;28;97504;-65
2023/10/30 06:03:38;;;;;;;;;9.40;7.00;;;;;15.02;100.00;97966.97;6164433;28;96845;-66
2023/10/30 06:06:42;;;;;;;;;10.00;10.00;;;;;15.10;100.00;97969.16;6182975;28;97327;-66
2023/10/30 06:09:45;;;;;;;;;10.60;10.60;;;;;15.28;100.00;97967.75;6180351;28;97556;-65
2023/10/30 06:12:48;;;;;;;;;11.00;10.00;;;;;15.68;100.00;97961.44;6178411;28;96284;-65
2023/10/30 06:15:54;;;;;;;;;10.00;9.40;;;;;16.17;100.00;97961.53;6167420;28;97508;-66
2023/10/30 06:18:58;;;;;;;;;11.00;10.00;;;;;16.51;100.00;97970.56;6181183;28;96792;-66
2023/10/30 06:22:01;;;;;;;;;10.40;10.00;;;;;16.66;100.00;97967.78;6174734;28;96973;-66
2023/10/30 06:25:05;;;;;;;;;9.20;9.00;;;;;17.09;100.00;97987.84;6187266;28;96870;-65
2023/10/30 06:28:10;;;;;;;;;10.00;9.00;;;;;17.30;100.00;97989.28;6180648;28;97420;-66
2023/10/30 06:31:16;;;;;;;;;10.60;9.00;;;;;17.31;100.00;97985.44;6173402;28;98534;-66
2023/10/30 06:34:19;;;;;;;;;11.00;9.40;;;;;17.20;100.00;97970.28;6185678;28;97328;-65
2023/10/30 06:37:22;;;;;;;;;11.00;10.40;;;;;17.26;100.00;97982.78;6184137;28;96589;-66
2023/10/30 06:40:25;;;;;;;;;12.40;11.00;;;;;17.23;100.00;97982.53;6166537;28;96327;-66
2023/10/30 06:43:28;;;;;;;;;15.50;11.50;;;;;17.23;100.00;97985.25;6181885;28;96511;-66
2023/10/30 06:46:33;;;;;;;;;10.80;9.80;;;;;17.36;100.00;97976.41;6181783;28;97970;-65
2023/10/30 06:49:36;;;;;;;;;13.67;12.00;;;;;17.58;100.00;97981.38;6191663;28;96329;-66
2023/10/30 06:52:39;;;;;;;;;11.50;10.00;;;;;17.90;100.00;97986.22;6191096;28;96439;-66
2023/10/30 06:55:42;;;;;;;;;9.00;7.60;;;;;18.40;100.00;97999.22;6190229;28;96333;-66
2023/10/30 06:58:45;;;;;;;;;7.40;7.00;;;;;19.05;100.00;98010.31;6171607;28;96669;-66
2023/10/30 07:01:49;;;;;;;;;7.50;6.75;;;;;19.89;100.00;98006.34;6186225;28;96218;-66
2023/10/30 07:04:53;;;;;;;;;7.00;6.00;;;;;20.80;100.00;98005.56;6189158;28;96542;-67
2023/10/30 07:07:56;;;;;;;;;6.67;6.00;;;;;21.48;100.00;98002.53;6190429;28;96760;-66
2023/10/30 07:10:59;;;;;;;;;9.00;7.00;;;;;22.38;100.00;98026.69;6185952;28;96510;-66
2023/10/30 07:14:03;;;;;;;;;8.60;8.60;;;;;23.11;100.00;98021.47;6188792;28;98911;-66
2023/10/30 07:17:07;;;;;;;;;5.75;5.25;;;;;23.73;100.00;98030.94;6189040;28;98065;-67
2023/10/30 07:20:11;;;;;;;;;7.40;7.00;;;;;24.97;100.00;98038.00;6189173;28;96887;-67
2023/10/30 07:23:14;;;;;;;;;6.20;6.00;;;;;25.89;100.00;98024.78;6189322;28;97121;-67
2023/10/30 07:26:18;;;;;;;;;4.00;3.25;;;;;26.11;100.00;98023.53;6189895;28;96356;-67
2023/10/30 07:29:21;;;;;;;;;6.00;6.00;;;;;26.65;100.00;98016.63;6189272;28;96381;-67
2023/10/30 07:32:26;;;;;;;;;7.00;6.00;;;;;27.37;95.74;98022.34;6172512;28;96754;-67
2023/10/30 07:35:29;;;;;;;;;8.00;7.00;;;;;27.95;94.52;98009.72;6189535;28;96919;-67
2023/10/30 07:38:32;;;;;;;;;5.00;4.60;;;;;28.84;89.94;98007.13;6174378;28;96348;-67
2023/10/30 07:41:35;;;;;;;;;4.00;4.00;;;;;28.84;87.53;97998.81;6165179;28;96307;-67
2023/10/30 07:44:38;;;;;;;;;6.60;6.40;;;;;28.94;87.97;98003.78;6147676;28;96504;-67
2023/10/30 07:47:42;;;;;;;;;6.00;5.00;;;;;28.72;87.21;98016.41;6185566;28;96866;-67
2023/10/30 07:50:47;;;;;;;;;6.67;6.00;;;;;29.34;87.53;98014.56;6189592;28;96975;-67
2023/10/30 07:53:50;;;;;;;;;6.00;4.00;;;;;29.66;83.23;98015.22;6189925;28;96703;-63
2023/10/30 07:56:53;;;;;;;;;4.80;4.20;;;;;29.44;83.68;98016.75;6188294;28;99012;-62
2023/10/30 07:59:56;;;;;;;;;4.00;4.00;;;;;28.59;85.68;98025.19;6163210;28;99934;-62
2023/10/30 08:03:01;;;;;;;;;6.00;4.00;;;;;27.72;90.33;98011.47;6163913;28;96656;-62
2023/10/30 08:06:06;;;;;;;;;4.00;3.60;;;;;26.94;95.01;98025.81;6169872;28;96840;-63
2023/10/30 08:09:09;;;;;;;;;6.80;6.00;;;;;26.10;100.00;98019.97;6197351;28;96426;-62
2023/10/30 08:12:13;;;;;;;;;12.25;11.25;;;;;25.55;100.00;98009.41;6185921;28;96854;-63
2023/10/30 08:15:16;;;;;;;;;14.00;13.00;;;;;25.57;100.00;98001.59;6186995;28;96821;-62
2023/10/30 08:18:21;;;;;;;;;12.00;12.00;;;;;25.62;100.00;98019.88;6188694;28;96730;-63
2023/10/30 08:21:24;;;;;;;;;12.00;11.25;;;;;25.65;100.00;98020.03;6187850;28;96663;-62
2023/10/30 08:24:27;;;;;;;;;12.00;11.00;;;;;26.08;99.31;98018.72;6186548;28;96701;-63
2023/10/30 08:27:30;;;;;;;;;13.00;11.00;;;;;26.92;97.45;98022.63;6187156;28;96442;-62
2023/10/30 08:30:34;;;;;;;;;9.00;9.00;;;;;27.94;95.20;98036.63;6187982;28;97839;-63
2023/10/30 08:33:39;;;;;;;;;9.00;9.00;;;;;29.02;89.88;98022.22;6188898;28;96340;-62
2023/10/30 08:36:42;;;;;;;;;14.00;13.00;;;;;30.36;84.68;98020.41;6188028;28;96984;-62
2023/10/30 08:39:45;;;;;;;;;11.00;10.00;;;;;31.75;74.96;98019.22;6174080;28;96346;-63
2023/10/30 08:42:49;;;;;;;;;8.60;8.60;;;;;32.44;68.03;98016.69;6189707;28;96290;-63
2023/10/30 08:45:52;;;;;;;;;11.00;9.60;;;;;32.45;70.55;98021.03;6189786;28;96337;-63
2023/10/30 08:48:57;;;;;;;;;11.00;10.00;;;;;31.86;71.22;98027.69;6172537;28;96678;-63
2023/10/30 08:52:00;;;;;;;;;8.00;8.00;;;;;30.98;75.13;98019.78;6164589;28;96853;-63
2023/10/30 08:55:07;;;;;;;;;11.00;11.00;;;;;30.01;78.58;98029.78;6164591;28;97374;-62
2023/10/30 08:58:10;;;;;;;;;11.80;10.80;;;;;28.83;85.64;98028.53;6165076;28;96575;-63
2023/10/30 09:01:14;;;;;;;;;12.00;11.00;;;;;27.90;91.28;98024.66;6164352;28;96349;-62
2023/10/30 09:04:19;;;;;;;;;11.40;11.00;;;;;27.08;94.96;98027.06;6162945;28;96479;-67
2023/10/30 09:07:22;;;;;;;;;12.00;11.00;;;;;26.44;97.34;98023.47;6178964;28;97432;-67
2023/10/30 09:10:28;;;;;;;;;11.67;10.00;;;;;25.86;100.00;98042.84;6163440;28;96419;-68
2023/10/30 09:13:32;;;;;;;;;13.00;12.00;;;;;25.33;100.00;98043.66;6163478;28;96596;-67
2023/10/30 09:16:35;;;;;;;;;11.20;11.00;;;;;25.00;100.00;98045.56;6163790;28;96827;-67
2023/10/30 09:19:40;;;;;;;;;10.00;10.00;;;;;24.68;100.00;98043.50;6187061;28;98642;-67
2023/10/30 09:22:43;;;;;;;;;11.00;10.00;;;;;24.38;100.00;98039.97;6188155;28;96288;-67
2023/10/30 09:25:46;;;;;;;;;8.80;8.80;;;;;24.12;100.00;98040.84;6188044;28;96476;-67
2023/10/30 09:28:49;;;;;;;;;7.20;7.20;;;;;23.90;100.00;98049.34;6187815;28;96398;-67
2023/10/30 09:31:53;;;;;;;;;9.80;8.40;;;;;23.64;100.00;98059.63;6187882;28;96865;-67
2023/10/30 09:34:59;;;;;;;;;9.50;8.50;;;;;23.22;100.00;98053.00;6188456;28;96281;-67
2023/10/30 09:38:03;;;;;;;;;12.20;10.00;;;;;23.19;100.00;98050.91;6175650;28;96513;-67
2023/10/30 09:41:07;;;;;;;;;14.20;13.20;;;;;23.26;100.00;98041.00;6163723;28;96888;-67
2023/10/30 09:44:10;;;;;;;;;10.00;9.00;;;;;23.32;100.00;98041.66;6163262;28;96537;-67
2023/10/30 09:47:14;;;;;;;;;7.00;7.00;;;;;23.60;100.00;98055.91;6168159;28;96921;-67
2023/10/30 09:50:19;;;;;;;;;10.00;9.00;;;;;23.76;100.00;98059.75;6185645;28;97206;-67
2023/10/30 09:53:22;;;;;;;;;7.00;7.00;;;;;23.82;100.00;98046.63;6184853;28;96690;-67
2023/10/30 09:56:28;;;;;;;;;10.80;10.00;;;;;24.14;100.00;98041.31;6184291;28;96721;-67
2023/10/30 09:59:33;;;;;;;;;10.00;9.00;;;;;24.48;100.00;98047.84;6160339;28;96825;-67
2023/10/30 10:02:37;;;;;;;;;9.40;8.00;;;;;24.51;100.00;98047.97;6176163;28;97895;-66
2023/10/30 10:05:41;;;;;;;;;10.67;8.67;;;;;24.68;100.00;98043.50;6112227;28;96598;-66
2023/10/30 10:08:47;;;;;;;;;10.00;10.00;;;;;25.29;100.00;98041.94;6123572;28;97474;-66
2023/10/30 10:11:50;;;;;;;;;12.80;12.00;;;;;25.70;100.00;98046.59;6111237;28;96760;-67
2023/10/30 10:14:53;;;;;;;;;17.00;16.00;;;;;25.76;100.00;98046.03;6128322;28;97201;-63
2023/10/30 10:17:56;;;;;;;;;16.00;15.00;;;;;25.83;100.00;98038.00;6123802;28;96562;-62
2023/10/30 10:21:03;;;;;;;;;14.00;12.40;;;;;25.72;100.00;98036.81;6115845;28;97803;-62
2023/10/30 10:24:07;;;;;;;;;14.80;13.80;;;;;25.64;100.00;98026.69;6114619;28;98403;-63
2023/10/30 10:27:11;;;;;;;;;15.00;14.40;;;;;25.45;100.00;98027.19;6117736;28;96585;-63
2023/10/30 10:30:16;;;;;;;;;15.00;13.60;;;;;25.35;100.00;98035.06;6140131;28;96726;-62
2023/10/30 10:33:20;;;;;;;;;13.60;12.00;;;;;25.33;100.00;98038.16;6138365;28;97754;-61
2023/10/30 10:36:32;;;;;;;;;15.00;15.00;;;;;25.34;100.00;98045.28;6138918;28;97022;-62
2023/10/30 10:39:48;;;;;;;;;12.00;11.40;;;;;25.37;100.00;98047.34;6134167;28;96906;-62
2023/10/30 10:42:52;;;;;;;;;14.00;13.00;;;;;25.53;100.00;98050.31;6138702;28;98205;-62
2023/10/30 10:45:58;;;;;;;;;11.75;10.75;;;;;25.84;100.00;98047.09;6134542;28;96417;-62
2023/10/30 10:49:01;;;;;;;;;11.60;10.20;;;;;26.29;100.00;98050.63;6134975;28;96331;-62
2023/10/30 10:52:09;;;;;;;;;9.60;9.60;;;;;26.96;100.00;98051.19;6121478;28;96834;-63
2023/10/30 10:55:15;;;;;;;;;10.00;9.00;;;;;27.89;99.58;98044.38;6115467;28;96328;-62
2023/10/30 10:58:21;;;;;;;;;14.80;12.40;;;;;28.80;96.06;98045.91;6138855;28;96478;-63
2023/10/30 11:01:29;;;;;;;;;10.00;9.00;;;;;29.48;91.52;98041.81;6138337;28;96884;-64
2023/10/30 11:04:33;;;;;;;;;10.60;9.60;;;;;30.23;89.39;98038.47;6162491;28;98522;-63
2023/10/30 11:07:42;;;;;;;;;11.25;10.00;;;;;30.94;86.23;98034.84;6181834;28;97595;-63
2023/10/30 11:10:51;;;;;;;;;11.33;11.00;;;;;31.77;83.27;98043.88;6166140;28;97100;-63
2023/10/30 11:14:09;;;;;;;;;11.80;10.80;;;;;32.32;78.46;98032.91;6152802;28;96725;-63
2023/10/30 11:17:13;;;;;;;;;13.25;13.25;;;;;32.74;75.55;98027.69;6177948;28;96695;-63
2023/10/30 11:20:22;;;;;;;;;10.20;8.80;;;;;33.04;73.95;98030.25;6176139;28;98784;-63
2023/10/30 11:23:52;;;;;;;;;10.20;9.20;;;;;32.59;71.76;98035.13;6181499;28;96288;-65
2023/10/30 11:26:55;;;;;;;;;9.60;9.00;;;;;32.19;75.60;98049.13;6179152;28;96578;-65
2023/10/30 11:30:04;;;;;;;;;13.25;12.00;;;;;31.86;77.36;98032.47;6186612;28;96700;-65
2023/10/30 11:33:18;;;;;;;;;13.20;12.00;;;;;32.25;78.80;98039.25;6188476;28;96486;-66
2023/10/30 11:36:26;;;;;;;;;17.00;14.00;;;;;33.16;71.01;98017.97;6186150;28;96975;-66
2023/10/30 11:39:34;;;;;;;;;13.25;12.00;;;;;34.27;65.24;98015.09;6170087;28;97656;-66
2023/10/30 11:42:40;;;;;;;;;14.00;14.00;;;;;35.07;64.16;98024.63;6164956;28;96559;-66
2023/10/30 11:45:43;;;;;;;;;13.00;12.00;;;;;35.69;57.54;98012.00;6147422;28;96574;-66
2023/10/30 11:48:48;;;;;;;;;11.40;10.00;;;;;36.32;51.69;98014.38;6177316;28;96942;-66
2023/10/30 11:51:54;;;;;;;;;10.80;10.00;;;;;36.97;50.62;98009.78;6188771;28;96453;-66
2023/10/30 11:54:59;;;;;;;;;11.00;10.25;;;;;37.65;47.94;98009.78;6186774;28;96786;-66
2023/10/30 11:58:03;;;;;;;;;9.00;8.25;;;;;38.11;46.10;97997.91;6185579;28;97540;-66
2023/10/30 12:01:09;;;;;;;;;10.00;9.00;;;;;38.40;42.31;98004.66;6170242;28;96844;-66
2023/10/30 12:04:12;;;;;;;;;8.00;7.00;;;;;38.67;42.55;97996.16;6169415;28;97715;-66
2023/10/30 12:07:15;;;;;;;;;8.40;8.00;;;;;38.79;41.09;97989.09;6186158;28;98602;-66
2023/10/30 12:10:20;;;;;;;;;8.40;7.00;;;;;38.84;38.91;97985.78;6187335;28;96932;-66
2023/10/30 12:13:23;;;;;;;;;6.00;6.00;;;;;38.53;40.79;97994.38;6188967;28;96891;-66
2023/10/30 12:16:29;;;;;;;;;6.00;6.00;;;;;38.11;42.12;97981.81;6177035;28;97604;-65
2023/10/30 12:19:32;;;;;;;;;4.20;4.00;;;;;37.44;43.26;97977.09;6187185;28;96266;-65
2023/10/30 12:22:40;;;;;;;;;6.80;6.20;;;;;36.72;46.58;97972.72;6187880;28;96424;-65
2023/10/30 12:25:45;;;;;;;;;6.00;6.00;;;;;36.20;49.70;97967.19;6186999;28;97074;-65
2023/10/30 12:28:49;;;;;;;;;6.00;5.00;;;;;35.59;51.08;97963.16;6186093;28;96554;-65
2023/10/30 12:31:52;;;;;;;;;7.00;6.67;;;;;35.19;56.55;97953.34;6187470;28;96558;-66
2023/10/30 12:34:56;;;;;;;;;6.80;6.00;;;;;34.80;58.82;97942.28;6188988;28;96210;-67
2023/10/30 12:37:59;;;;;;;;;7.40;7.00;;;;;34.43;61.82;97930.75;6175651;28;97083;-67
2023/10/30 12:41:06;;;;;;;;;7.00;7.00;;;;;33.95;61.18;97936.75;6187709;28;96874;-67
2023/10/30 12:44:09;;;;;;;;;6.20;5.20;;;;;33.55;64.31;97939.88;6188938;28;96332;-66
2023/10/30 12:47:12;;;;;;;;;7.00;6.00;;;;;33.14;67.21;97944.91;6175968;28;97240;-67
2023/10/30 12:50:16;;;;;;;;;7.00;6.00;;;;;32.89;69.75;97947.63;6187050;28;96373;-67
2023/10/30 12:53:19;;;;;;;;;5.00;5.00;;;;;32.74;72.10;97940.38;6187504;28;97033;-67
2023/10/30 12:56:24;;;;;;;;;5.00;5.00;;;;;32.62;72.41;97922.72;6183151;28;96638;-67
2023/10/30 12:59:27;;;;;;;;;4.60;4.60;;;;;32.48;73.53;97910.69;6180927;28;96584;-68
2023/10/30 13:02:31;;;;;;;;;7.00;6.50;;;;;32.30;75.09;97918.16;6188470;28;96244;-67
2023/10/30 13:05:34;;;;;;;;;4.00;4.00;;;;;31.87;76.38;97922.53;6187960;28;96834;-67
2023/10/30 13:08:37;;;;;;;;;6.00;5.00;;;;;31.67;78.92;97919.97;6186668;28;96274;-67
2023/10/30 13:11:42;;;;;;;;;4.00;4.00;;;;;31.45;79.88;97909.81;6188335;28;96370;-67
2023/10/30 13:14:45;;;;;;;;;4.00;4.00;;;;;31.33;81.96;97896.13;6187230;28;98884;-67
2023/10/30 13:17:48;;;;;;;;;5.80;4.80;;;;;31.20;82.94;97905.94;6186620;28;96509;-67
2023/10/30 13:20:51;;;;;;;;;7.00;6.00;;;;;30.91;83.70;97900.03;6188004;28;96819;-67
2023/10/30 13:23:54;;;;;;;;;4.00;4.00;;;;;30.41;84.92;97892.97;6186649;28;97537;-67
2023/10/30 13:27:02;;;;;;;;;4.67;4.67;;;;;30.10;87.65;97902.44;6184337;28;96650;-67
2023/10/30 13:30:06;;;;;;;;;4.80;4.20;;;;;29.58;88.62;97908.72;6180427;28;96904;-67
2023/10/30 13:33:09;;;;;;;;;6.00;5.00;;;;;29.15;91.66;97904.34;6185864;28;96591;-67
2023/10/30 13:36:13;;;;;;;;;5.00;4.25;;;;;28.86;93.96;97907.72;6185297;28;97295;-66
2023/10/30 13:39:16;;;;;;;;;5.00;5.00;;;;;28.83;96.30;97902.91;6185028;28;97185;-67
2023/10/30 13:42:21;;;;;;;;;7.00;6.60;;;;;28.71;93.87;97914.09;6186381;28;96267;-67
2023/10/30 13:45:24;;;;;;;;;4.00;2.40;;;;;28.32;93.84;97914.06;6183523;28;96307;-65
2023/10/30 13:48:28;;;;;;;;;6.60;6.60;;;;;28.16;93.12;97923.56;6183271;28;96775;-65
2023/10/30 13:51:31;;;;;;;;;6.00;5.50;;;;;27.99;90.86;97919.19;6169609;28;96705;-63
2023/10/30 13:54:36;;;;;;;;;6.00;5.00;;;;;27.98;90.33;97914.81;6185023;28;97412;-64
2023/10/30 13:57:41;;;;;;;;;8.00;7.00;;;;;28.01;88.95;97909.34;6164358;28;97392;-64
2023/10/30 14:00:44;;;;;;;;;2.25;2.25;;;;;28.01;87.48;97911.28;6182934;28;96828;-64
2023/10/30 14:03:47;;;;;;;;;5.00;5.00;;;;;27.82;87.93;97900.97;6184735;28;97278;-64
2023/10/30 14:06:51;;;;;;;;;4.00;3.00;;;;;27.87;88.08;97897.09;6159816;28;97294;-64
2023/10/30 14:09:54;;;;;;;;;2.00;2.00;;;;;27.53;89.13;97876.50;6177832;28;96612;-64
2023/10/30 14:12:59;;;;;;;;;1.00;1.00;;;;;27.63;88.56;97886.22;6183115;28;98961;-64